This is the latest recevied weather packets stored in our database for station/object N2PPN. If no packets are shown the sender has not sent any weather packets the latest 10 day(s).
| Time | Temp. | Humidity | Pressure | Rain* | Wind** | Luminosity | Snow |
|---|---|---|---|---|---|---|---|
| 1777599869 | 11.67° C | 76% | 1012.3 hPa | 0 mm | - | 0 W/m² | - |
| 1777599565 | 11.67° C | 76% | 1012.1 hPa | 0 mm | - | 0 W/m² | - |
| 1777599262 | 11.67° C | 74% | 1011.9 hPa | 0 mm | - | 0 W/m² | - |
| 1777598958 | 11.67° C | 74% | 1012.1 hPa | 0 mm | - | 0 W/m² | - |
| 1777598656 | 11.67° C | 74% | 1012 hPa | 0 mm | - | 0 W/m² | - |
| 1777598351 | 12.22° C | 74% | 1012 hPa | 0 mm | - | 0 W/m² | - |
| 1777598050 | 12.22° C | 74% | 1011.8 hPa | 0 mm | - | 0 W/m² | - |
| 1777597749 | 12.22° C | 75% | 1011.6 hPa | 0 mm | - | 0 W/m² | - |
| 1777597445 | 12.22° C | 74% | 1011.5 hPa | 0 mm | - | 0 W/m² | - |
| 1777597140 | 12.22° C | 74% | 1011.4 hPa | 0 mm | - | 0 W/m² | - |
| 1777596836 | 12.22° C | 73% | 1011.2 hPa | 0 mm | - | 0 W/m² | - |
| 1777596532 | 12.22° C | 74% | 1011.1 hPa | 0 mm | - | 0 W/m² | - |
| 1777596230 | 12.78° C | 73% | 1011.4 hPa | 0 mm | - | 0 W/m² | - |
| 1777595927 | 12.78° C | 72% | 1011.3 hPa | 0 mm | - | 0 W/m² | - |
| 1777595622 | 12.78° C | 72% | 1011 hPa | 0 mm | - | 0 W/m² | - |
| 1777595318 | 12.78° C | 71% | 1011.1 hPa | 0 mm | - | 0 W/m² | - |
| 1777595014 | 13.33° C | 70% | 1010.8 hPa | 0 mm | - | 0 W/m² | - |
| 1777594711 | 13.33° C | 71% | 1010.9 hPa | 0 mm | - | 0 W/m² | - |
| 1777594407 | 13.33° C | 69% | 1010.7 hPa | 0 mm | - | 0 W/m² | - |
| 1777594102 | 13.33° C | 70% | 1010.7 hPa | 0 mm | - | 0 W/m² | - |
| 1777593799 | 13.89° C | 70% | 1010.6 hPa | 0 mm | - | 0 W/m² | - |
| 1777593496 | 13.89° C | 69% | 1010.6 hPa | 0 mm | - | 1 W/m² | - |
| 1777593195 | 13.89° C | 70% | 1010.6 hPa | 0 mm | - | 2 W/m² | - |
| 1777592894 | 13.33° C | 76% | 1010.6 hPa | 0 mm | - | 3 W/m² | - |
| 1777592590 | 12.78° C | 84% | 1010.6 hPa | 0 mm | - | 6 W/m² | - |
* Rain latest hour (hover to see other rain measurements)
** Current wind speed in m/s (hover to see current wind gust speed)